Etters, Pennsylvania
Current Conditions -  °F | °C
As of 6:56 AM on Friday 28 Nov 2014 (Local Time) from KMDT Reporting Station
Few Clouds Few Clouds  
Wind Chill: -7°   Ceiling: Unl
Heat Index: -1°   Visibility: 10mi
Dew Point: -6°   Wind: 15mph
Humidity: 67%   Direction: 300°WNW
Pressure: 30.22"   Gusts: NA
Location:  40.15°N, 76.79°W
Report Text: KMDT 281156Z 30013KT 10SM FEW040 M01/M06 A3022 RMK AO2 SLP238 T10061061 10006 21017 53023
Loading
Personal Weather Stations






























Interactive Weather Map New forecast layout! Learn more

10-Day Weather Forecast

Advertisements
Track Severe Weather on mobile